Time;durP1;ratioP1;P1;durP2;ratioP2;P2;SDS_P1;SDS_P2;PMS_P1;PMS_P2;Temp;Humidity;BMP_temperature;BMP_pressure;BME280_temperature;BME280_humidity;BME280_pressure;Samples;Min_cycle;Max_cycle;Signal;HPM_P1;HPM_P2
2021/05/21 00:00:25;;;;;;;7.88;4.88;;;;;;;7.79;78.12;96737.27;127812;1100;22764;-84
2021/05/21 00:03:14;;;;;;;8.80;5.60;;;;;;;7.85;77.60;96738.88;127822;1100;30054;-87
2021/05/21 00:05:44;;;;;;;8.50;6.03;;;;;;;7.86;77.51;96738.61;127763;1101;22780;-84
2021/05/21 00:08:14;;;;;;;9.53;5.93;;;;;;;7.84;76.62;96745.20;127798;1100;23114;-84
2021/05/21 00:10:43;;;;;;;;;;;;;;;7.73;76.67;96733.80;127843;1100;28731;-85
2021/05/21 00:13:13;;;;;;;9.70;5.28;;;;;;;7.58;76.67;96739.00;127726;1101;30148;-87
2021/05/21 00:15:44;;;;;;;7.73;5.40;;;;;;;7.53;76.94;96742.41;127729;1101;24647;-85
2021/05/21 00:18:14;;;;;;;7.30;4.95;;;;;;;7.40;76.62;96741.02;127748;1101;27534;-86
2021/05/21 00:20:44;;;;;;;8.77;5.27;;;;;;;7.26;76.77;96737.23;127752;1100;27349;-86
2021/05/21 00:23:16;;;;;;;7.63;4.93;;;;;;;7.18;77.38;96742.98;127700;1101;28725;-86
2021/05/21 00:25:46;;;;;;;10.00;5.45;;;;;;;7.18;77.62;96742.98;127762;1094;26034;-85
2021/05/21 00:28:16;;;;;;;10.88;5.53;;;;;;;7.20;77.59;96734.81;127729;1101;22813;-84
2021/05/21 00:30:46;;;;;;;7.85;5.35;;;;;;;7.18;77.80;96729.80;127760;1096;28976;-85
2021/05/21 00:33:16;;;;;;;6.18;3.73;;;;;;;7.16;78.18;96734.51;127752;1097;26216;-87
2021/05/21 00:35:46;;;;;;;9.00;5.93;;;;;;;7.16;78.35;96731.88;127743;1101;28806;-86
2021/05/21 00:38:16;;;;;;;9.55;5.58;;;;;;;7.20;78.25;96730.34;127736;1101;28826;-85
2021/05/21 00:40:46;;;;;;;9.13;5.90;;;;;;;7.18;78.15;96731.62;127790;1101;23457;-86
2021/05/21 00:43:18;;;;;;;9.00;6.25;;;;;;;7.16;78.66;96734.51;127832;1101;22776;-88
2021/05/21 00:45:48;;;;;;;7.95;5.53;;;;;;;7.17;78.42;96727.39;127803;1101;25317;-87
2021/05/21 00:48:18;;;;;;;9.20;5.45;;;;;;;7.17;78.73;96730.03;127758;1101;61720;-84
2021/05/21 00:50:49;;;;;;;8.85;5.88;;;;;;;7.17;78.52;96722.12;127823;1094;26206;-85
2021/05/21 00:53:21;;;;;;;7.58;4.83;;;;;;;7.22;78.80;96724.81;127799;1101;24659;-90
2021/05/21 00:55:51;;;;;;;10.10;5.65;;;;;;;7.36;78.90;96718.05;127765;1101;27464;-86
2021/05/21 00:58:21;;;;;;;9.58;6.28;;;;;;;7.53;79.58;96717.88;127780;1101;28354;-85
2021/05/21 01:00:53;;;;;;;9.70;5.98;;;;;;;7.66;78.67;96718.21;127795;1101;27600;-86
2021/05/21 01:03:23;;;;;;;8.03;5.70;;;;;;;7.70;78.72;96724.55;127839;1101;28211;-85
2021/05/21 01:05:53;;;;;;;10.28;6.13;;;;;;;7.81;78.49;96721.97;127743;1101;28648;-85
2021/05/21 01:08:23;;;;;;;7.53;5.63;;;;;;;7.90;78.39;96731.00;127744;1101;26774;-86
2021/05/21 01:10:53;;;;;;;9.78;5.48;;;;;;;7.95;77.98;96728.37;127742;1100;29007;-85
2021/05/21 01:13:23;;;;;;;11.15;5.48;;;;;;;7.76;77.67;96724.59;127752;1101;23430;-84
2021/05/21 01:15:53;;;;;;;7.50;4.78;;;;;;;7.49;77.94;96725.52;127714;1101;26804;-84
2021/05/21 01:18:23;;;;;;;8.40;4.87;;;;;;;7.33;78.06;96729.11;127737;1101;28801;-83
2021/05/21 01:20:56;;;;;;;9.57;5.60;;;;;;;7.32;78.43;96722.22;127787;1101;27801;-87
2021/05/21 01:23:26;;;;;;;8.45;6.00;;;;;;;7.40;78.52;96730.46;127770;1101;23429;-84
2021/05/21 01:25:56;;;;;;;8.80;6.15;;;;;;;7.39;78.35;96722.80;127763;1100;27610;-84
2021/05/21 01:28:26;;;;;;;7.07;5.47;;;;;;;7.38;78.23;96716.73;127722;1101;38581;-84
2021/05/21 01:30:56;;;;;;;8.98;5.98;;;;;;;7.37;78.32;96719.63;127758;1101;28293;-83
2021/05/21 01:33:26;;;;;;;9.80;5.45;;;;;;;7.35;78.42;96711.19;127797;1101;22776;-84
2021/05/21 01:35:56;;;;;;;9.63;6.18;;;;;;;7.43;79.53;96724.67;127715;1101;25245;-85
2021/05/21 01:38:26;;;;;;;9.03;5.90;;;;;;;7.54;79.16;96712.34;127763;1100;35587;-84
2021/05/21 01:40:59;;;;;;;9.10;5.43;;;;;;;7.54;78.58;96709.70;127732;1096;25874;-84
2021/05/21 01:43:31;;;;;;;9.50;6.30;;;;;;;7.57;78.85;96703.11;127729;1100;22831;-84
2021/05/21 01:46:01;;;;;;;9.30;6.43;;;;;;;7.56;78.46;96710.23;127771;1100;22787;-85
2021/05/21 01:48:31;;;;;;;8.50;6.03;;;;;;;7.58;79.07;96713.41;127834;1101;26489;-87
2021/05/21 01:51:05;;;;;;;9.43;6.33;;;;;;;7.59;78.82;96717.63;127824;1101;24610;-85
2021/05/21 01:53:36;;;;;;;9.50;6.25;;;;;;;7.69;79.15;96716.90;127739;1100;23511;-85
2021/05/21 01:56:08;;;;;;;8.80;6.00;;;;;;;7.66;78.72;96717.42;127706;1101;29640;-90
2021/05/21 01:58:38;;;;;;;8.80;5.93;;;;;;;7.63;78.92;96724.00;127771;1101;28735;-83
2021/05/21 02:01:09;;;;;;;9.38;6.18;;;;;;;7.58;78.54;96716.05;127763;1100;22761;-87
2021/05/21 02:03:38;;;;;;;9.80;5.83;;;;;;;7.48;78.31;96710.73;127731;1101;55445;-84
2021/05/21 02:06:08;;;;;;;10.43;6.47;;;;;;;7.45;78.58;96714.66;127748;1100;30979;-89
2021/05/21 02:08:38;;;;;;;8.40;6.10;;;;;;;7.39;78.63;96705.14;127793;1101;27083;-91
2021/05/21 02:11:08;;;;;;;6.90;5.13;;;;;;;7.35;78.88;96711.19;127735;1101;25960;-86
2021/05/21 02:13:38;;;;;;;9.30;5.83;;;;;;;7.32;79.22;96704.58;127724;1097;22756;-85
2021/05/21 02:16:08;;;;;;;9.13;5.60;;;;;;;7.28;79.06;96702.69;127762;1101;23170;-90
2021/05/21 02:18:38;;;;;;;9.00;5.60;;;;;;;7.19;79.16;96696.32;127723;1101;27144;-85
2021/05/21 02:21:11;;;;;;;9.05;5.70;;;;;;;7.06;79.81;96700.98;127717;1101;30954;-89
2021/05/21 02:23:41;;;;;;;9.40;5.30;;;;;;;6.95;79.61;96701.95;127721;1101;29045;-86
2021/05/21 02:26:11;;;;;;;10.93;5.43;;;;;;;6.83;80.50;96701.33;127765;1101;24404;-90
2021/05/21 02:28:41;;;;;;;9.10;5.70;;;;;;;6.78;80.28;96699.45;127718;1101;24007;-86
2021/05/21 02:31:11;;;;;;;8.30;5.60;;;;;;;6.80;81.39;96699.20;127733;1101;25865;-86
2021/05/21 02:33:41;;;;;;;9.80;6.63;;;;;;;6.91;81.23;96697.44;127873;1100;23375;-85
2021/05/21 02:36:11;;;;;;;9.13;6.00;;;;;;;6.92;80.96;96691.92;127842;1097;29401;-84
2021/05/21 02:38:41;;;;;;;9.43;6.18;;;;;;;7.00;80.99;96696.70;127760;1101;22771;-85
2021/05/21 02:41:11;;;;;;;7.70;5.85;;;;;;;7.02;80.30;96696.45;127784;1100;26594;-86
2021/05/21 02:43:41;;;;;;;9.63;5.45;;;;;;;6.99;80.50;96696.95;127774;1101;28072;-87
2021/05/21 02:46:11;;;;;;;6.90;5.28;;;;;;;6.94;80.53;96689.81;127757;1101;25807;-86
2021/05/21 02:48:41;;;;;;;8.95;6.68;;;;;;;6.94;80.65;96691.66;127744;1100;24242;-86
2021/05/21 02:51:11;;;;;;;10.35;6.25;;;;;;;6.92;80.72;96697.19;127783;1101;24139;-86
2021/05/21 02:53:41;;;;;;;9.13;6.23;;;;;;;6.89;80.93;96692.40;127768;1101;30690;-89
2021/05/21 02:56:11;;;;;;;9.07;6.50;;;;;;;6.86;81.54;96690.27;127822;1100;26706;-87
2021/05/21 02:58:40;;;;;;;10.18;6.20;;;;;;;6.82;81.40;96700.53;127781;1100;23403;-86
2021/05/21 03:01:10;;;;;;;10.63;6.40;;;;;;;6.80;82.03;96693.92;127751;1101;25621;-87
2021/05/21 03:03:49;;;;;;;10.23;6.65;;;;;;;6.79;82.63;96697.61;127768;1101;25541;-85
2021/05/21 03:06:19;;;;;;;10.13;6.15;;;;;;;6.79;82.73;96702.88;127876;1095;25868;-87
2021/05/21 03:08:48;;;;;;;10.25;6.98;;;;;;;6.80;82.42;96707.10;127757;1101;28515;-87
2021/05/21 03:11:19;;;;;;;10.60;6.43;;;;;;;6.83;82.51;96714.50;127824;1101;25782;-85
2021/05/21 03:13:49;;;;;;;8.83;6.38;;;;;;;6.85;82.30;96715.03;127810;1101;23525;-86
2021/05/21 03:16:19;;;;;;;9.40;5.95;;;;;;;6.90;82.02;96709.83;127729;1101;22780;-87
2021/05/21 03:18:49;;;;;;;8.73;6.27;;;;;;;6.99;81.92;96710.93;127824;1100;24234;-86
2021/05/21 03:21:19;;;;;;;8.03;4.55;;;;;;;7.03;81.98;96709.38;127819;1101;25196;-86
2021/05/21 03:23:49;;;;;;;9.15;6.63;;;;;;;7.11;81.72;96706.28;127864;1100;22815;-88
2021/05/21 03:26:19;;;;;;;9.58;6.45;;;;;;;7.17;81.72;96701.03;127858;1101;22777;-87
2021/05/21 03:28:48;;;;;;;;;;;;;;;7.23;81.36;96705.30;127839;1101;25721;-88
2021/05/21 03:31:18;;;;;;;8.40;5.63;;;;;;;7.27;81.46;96706.38;127768;1100;26744;-86
2021/05/21 03:33:49;;;;;;;8.98;6.03;;;;;;;7.29;81.30;96699.00;127805;1100;25759;-86
2021/05/21 03:36:17;;;;;;;;;;;;;;;7.29;81.62;96696.36;127922;1101;24023;-86
2021/05/21 03:38:47;;;;;;;9.53;6.28;;;;;;;7.31;82.04;96695.05;127782;1101;25163;-84
2021/05/21 03:41:17;;;;;;;8.10;5.40;;;;;;;7.34;82.00;96689.30;127746;1097;26954;-85
2021/05/21 03:43:47;;;;;;;9.23;6.25;;;;;;;7.40;81.74;96693.53;127783;1101;26353;-86
2021/05/21 03:46:17;;;;;;;8.43;6.33;;;;;;;7.48;81.85;96691.48;127719;1100;32596;-85
2021/05/21 03:48:47;;;;;;;9.03;6.30;;;;;;;7.56;81.61;96690.97;127733;1100;29781;-85
2021/05/21 03:51:17;;;;;;;9.70;6.10;;;;;;;7.62;81.43;96690.77;127760;1100;25141;-88
2021/05/21 03:53:47;;;;;;;9.08;6.18;;;;;;;7.68;81.00;96683.65;127777;1100;26848;-84
2021/05/21 03:56:17;;;;;;;9.10;6.33;;;;;;;7.74;80.89;96683.43;127739;1100;25332;-87
2021/05/21 03:58:47;;;;;;;8.98;5.75;;;;;;;7.81;81.11;96677.90;127729;1100;30486;-86
2021/05/21 04:01:17;;;;;;;8.73;6.35;;;;;;;7.84;80.82;96682.66;127816;1100;27231;-89
2021/05/21 04:03:47;;;;;;;8.33;6.28;;;;;;;7.90;80.30;96680.84;127828;1100;25456;-87
2021/05/21 04:06:17;;;;;;;10.98;5.80;;;;;;;7.93;80.49;96685.60;127755;1100;29914;-87
2021/05/21 04:08:47;;;;;;;11.25;7.05;;;;;;;7.95;79.91;96680.85;127776;1100;27624;-87
2021/05/21 04:11:17;;;;;;;9.03;5.75;;;;;;;8.00;80.01;96681.65;127795;1100;23718;-85
2021/05/21 04:13:47;;;;;;;12.93;5.65;;;;;;;8.02;80.14;96674.29;127746;1100;27331;-84
2021/05/21 04:16:17;;;;;;;9.05;5.93;;;;;;;8.08;79.96;96680.37;127780;1100;39175;-86
2021/05/21 04:18:46;;;;;;;10.08;6.30;;;;;;;8.13;79.84;96683.01;127840;1100;24414;-87
2021/05/21 04:21:18;;;;;;;9.83;5.80;;;;;;;8.12;79.44;96681.42;127802;1100;24668;-85
2021/05/21 04:23:49;;;;;;;8.00;5.48;;;;;;;8.11;79.73;96682.48;127746;1100;71576;-85
2021/05/21 04:26:19;;;;;;;8.33;5.43;;;;;;;8.20;79.71;96686.20;127745;1100;30791;-87
2021/05/21 04:28:49;;;;;;;10.13;5.80;;;;;;;8.34;79.33;96683.89;127712;1100;26376;-85
2021/05/21 04:31:19;;;;;;;8.10;5.15;;;;;;;8.52;79.03;96682.59;127755;1101;28549;-89
2021/05/21 04:33:49;;;;;;;;;;;;;;;8.68;78.67;96681.54;127816;1100;28550;-87
2021/05/21 04:36:19;;;;;;;8.07;5.47;;;;;;;8.88;78.64;96686.84;127806;1096;28239;-85
2021/05/21 04:38:49;;;;;;;10.75;6.00;;;;;;;9.10;77.73;96683.11;127881;1100;34536;-87
2021/05/21 04:41:19;;;;;;;9.80;5.60;;;;;;;9.33;77.81;96687.84;127756;1100;26562;-86
2021/05/21 04:43:50;;;;;;;7.05;4.83;;;;;;;9.57;77.06;96687.24;127798;1100;30150;-85
2021/05/21 04:46:20;;;;;;;8.68;5.23;;;;;;;10.25;76.50;96679.57;127765;1101;29446;-89
2021/05/21 04:48:50;;;;;;;7.17;5.67;;;;;;;12.29;74.64;96681.88;127815;1101;22968;-88
2021/05/21 04:51:21;;;;;;;9.18;6.10;;;;;;;14.14;71.39;96675.78;127835;1101;26763;-89
2021/05/21 04:53:51;;;;;;;9.33;6.05;;;;;;;15.20;66.05;96675.23;127755;1101;41940;-85
2021/05/21 04:56:21;;;;;;;7.93;5.63;;;;;;;16.01;64.12;96673.05;127822;1101;25137;-88
2021/05/21 04:58:51;;;;;;;8.20;5.30;;;;;;;17.26;64.06;96665.20;127842;1101;29060;-89
2021/05/21 05:01:21;;;;;;;7.43;5.10;;;;;;;18.46;59.92;96664.96;127817;1101;22999;-89
2021/05/21 05:03:51;;;;;;;5.78;4.05;;;;;;;19.22;56.65;96660.03;127807;1101;28511;-89
2021/05/21 05:06:21;;;;;;;7.75;4.63;;;;;;;20.07;57.10;96662.03;127805;1101;26571;-89
2021/05/21 05:08:52;;;;;;;6.93;4.77;;;;;;;21.08;53.85;96666.48;127810;1101;23143;-87
2021/05/21 05:11:22;;;;;;;6.20;4.43;;;;;;;21.71;51.88;96665.82;127814;1101;26668;-89
2021/05/21 05:13:51;;;;;;;5.58;3.95;;;;;;;21.93;47.72;96657.08;127865;1101;23006;-88
2021/05/21 05:16:22;;;;;;;5.35;3.68;;;;;;;21.55;48.54;96657.73;127887;1095;31122;-89
2021/05/21 05:18:53;;;;;;;7.33;4.55;;;;;;;21.94;48.77;96653.25;127905;1101;22752;-88
2021/05/21 05:21:24;;;;;;;6.30;4.10;;;;;;;22.71;43.86;96652.64;127830;1101;25330;-87
2021/05/21 05:23:55;;;;;;;6.35;4.10;;;;;;;23.17;43.72;96650.85;127810;1100;26541;-88
2021/05/21 05:26:25;;;;;;;4.63;3.80;;;;;;;23.43;41.16;96650.16;127719;1100;33588;-86
2021/05/21 05:28:54;;;;;;;;;;;;;;;23.10;41.97;96648.03;127803;1101;23209;-87
2021/05/21 05:31:24;;;;;;;3.50;3.18;;;;;;;23.36;39.50;96648.09;127814;1101;32255;-89
2021/05/21 05:33:54;;;;;;;5.15;3.95;;;;;;;23.44;40.17;96651.72;127894;1101;23563;-87
2021/05/21 05:36:24;;;;;;;5.45;4.25;;;;;;;23.57;40.71;96642.31;127836;1101;23525;-87
2021/05/21 05:38:53;;;;;;;4.78;4.10;;;;;;;23.84;38.54;96653.18;127864;1101;23103;-92
2021/05/21 05:41:23;;;;;;;4.83;3.48;;;;;;;24.22;37.98;96650.28;127927;1101;23022;-91
2021/05/21 05:43:53;;;;;;;5.88;4.05;;;;;;;24.58;37.21;96648.06;127900;1100;24409;-92
2021/05/21 05:46:23;;;;;;;4.60;3.77;;;;;;;24.78;37.30;96651.42;127835;1101;28512;-90
2021/05/21 05:48:53;;;;;;;5.70;4.03;;;;;;;25.05;38.54;96654.84;127906;1101;24238;-89
2021/05/21 05:51:23;;;;;;;3.87;3.47;;;;;;;25.23;36.78;96660.47;127861;1101;30396;-87
2021/05/21 05:53:53;;;;;;;4.80;3.58;;;;;;;25.44;36.12;96666.09;127933;1100;24390;-88
2021/05/21 05:56:23;;;;;;;3.98;3.28;;;;;;;25.48;34.84;96652.55;127884;1101;31415;-86
2021/05/21 05:58:53;;;;;;;4.88;3.55;;;;;;;25.36;34.02;96645.48;127897;1097;26219;-87
2021/05/21 06:01:23;;;;;;;3.65;2.93;;;;;;;25.55;34.43;96639.84;127897;1100;31771;-89
2021/05/21 06:03:52;;;;;;;4.93;3.50;;;;;;;25.45;35.50;96645.95;127935;1096;26244;-90
2021/05/21 06:06:22;;;;;;;4.03;3.35;;;;;;;25.24;35.75;96646.53;127872;1101;22759;-91
2021/05/21 06:08:52;;;;;;;4.73;3.00;;;;;;;25.67;34.84;96638.78;127855;1101;28988;-87
2021/05/21 06:11:23;;;;;;;4.83;3.08;;;;;;;26.06;33.35;96636.39;127857;1100;23713;-90
2021/05/21 06:13:53;;;;;;;6.15;3.83;;;;;;;25.40;33.77;96641.64;127901;1101;25251;-91
2021/05/21 06:16:23;;;;;;;5.83;3.28;;;;;;;25.08;35.10;96644.05;127905;1101;24789;-87
2021/05/21 06:18:53;;;;;;;3.95;3.33;;;;;;;24.75;34.18;96641.30;127828;1101;48107;-88
2021/05/21 06:21:23;;;;;;;3.93;3.00;;;;;;;24.03;33.93;96644.95;127888;1100;25464;-87
2021/05/21 06:23:53;;;;;;;4.55;3.10;;;;;;;23.19;35.62;96635.05;127865;1100;22760;-90
2021/05/21 06:26:32;;;;;;;3.25;2.85;;;;;;;23.09;35.17;96641.06;127866;1101;23151;-90
2021/05/21 06:29:02;;;;;;;3.55;2.90;;;;;;;23.70;35.69;96634.78;127827;1101;23098;-90
2021/05/21 06:31:31;;;;;;;;;;;;;;;24.53;34.55;96629.42;127876;1101;23641;-88
2021/05/21 06:34:01;;;;;;;3.60;2.98;;;;;;;24.72;34.93;96631.98;127845;1096;21777;-87
2021/05/21 06:36:31;;;;;;;4.85;2.70;;;;;;;24.85;33.78;96627.09;127811;1101;31325;-88
2021/05/21 06:39:01;;;;;;;3.27;2.80;;;;;;;24.51;33.82;96632.51;127796;1101;33393;-87
2021/05/21 06:41:31;;;;;;;3.90;2.80;;;;;;;24.70;33.72;96623.44;127827;1095;40055;-87
2021/05/21 06:44:01;;;;;;;3.15;2.50;;;;;;;25.03;32.74;96621.88;127845;1097;24622;-86
2021/05/21 06:46:31;;;;;;;3.80;2.50;;;;;;;24.53;33.76;96610.45;127825;1101;25883;-86
2021/05/21 06:49:01;;;;;;;2.53;2.27;;;;;;;25.37;35.20;96617.97;127848;1101;23989;-87
2021/05/21 06:51:29;;;;;;;;;;;;;;;26.75;33.51;96609.20;127839;1100;25459;-89
2021/05/21 06:53:59;;;;;;;5.30;2.23;;;;;;;27.24;32.96;96598.84;127778;1101;30056;-87
2021/05/21 06:56:29;;;;;;;1.88;1.70;;;;;;;27.73;29.28;96604.34;127825;1100;25618;-86
2021/05/21 06:58:59;;;;;;;2.63;1.88;;;;;;;27.59;29.88;96603.52;127827;1100;31410;-87
2021/05/21 07:01:29;;;;;;;5.33;1.93;;;;;;;27.50;30.53;96595.75;127827;1101;22788;-87
2021/05/21 07:03:59;;;;;;;3.70;1.65;;;;;;;27.25;27.26;96594.95;127838;1101;29764;-86
2021/05/21 07:06:29;;;;;;;1.80;1.70;;;;;;;26.53;31.70;96594.73;127809;1101;27059;-88
2021/05/21 07:08:59;;;;;;;3.83;1.70;;;;;;;27.22;31.43;96580.17;127764;1100;32879;-86
2021/05/21 07:11:29;;;;;;;3.28;1.58;;;;;;;27.82;31.48;96575.91;127829;1101;23973;-87
2021/05/21 07:13:59;;;;;;;2.60;1.90;;;;;;;27.93;29.58;96571.23;127800;1101;24400;-86
2021/05/21 07:16:29;;;;;;;2.63;1.88;;;;;;;27.53;29.40;96577.84;127850;1096;27253;-86
2021/05/21 07:18:58;;;;;;;;;;;;;;;27.67;28.10;96567.75;127867;1095;25877;-87
2021/05/21 07:21:29;;;;;;;3.90;1.70;;;;;;;27.34;28.04;96568.91;127764;1101;25908;-86
2021/05/21 07:23:59;;;;;;;3.50;1.48;;;;;;;25.97;30.73;96562.58;127842;1101;23569;-86
2021/05/21 07:26:31;;;;;;;1.48;1.28;;;;;;;25.87;30.14;96558.63;127771;1101;32239;-87
2021/05/21 07:29:01;;;;;;;2.07;1.37;;;;;;;24.74;29.70;96548.33;127768;1101;29793;-88
2021/05/21 07:31:31;;;;;;;1.83;1.30;;;;;;;23.44;31.36;96562.43;127712;1096;31166;-90
2021/05/21 07:34:03;;;;;;;1.28;0.90;;;;;;;23.49;31.60;96550.51;127819;1100;26252;-90
2021/05/21 07:36:35;;;;;;;2.23;1.35;;;;;;;24.18;32.00;96549.20;127821;1101;23139;-87
2021/05/21 07:39:07;;;;;;;2.70;1.28;;;;;;;23.58;31.87;96542.95;127820;1101;23291;-88
2021/05/21 07:41:37;;;;;;;2.28;1.45;;;;;;;24.50;32.30;96543.44;127822;1096;23294;-88
2021/05/21 07:44:07;;;;;;;;;;;;;;;25.85;31.49;96538.45;127860;1101;30269;-88
2021/05/21 07:46:37;;;;;;;2.17;1.40;;;;;;;25.97;31.32;96541.63;127841;1101;22465;-88
2021/05/21 07:49:07;;;;;;;1.80;1.30;;;;;;;26.37;28.36;96536.41;127806;1101;23096;-88
2021/05/21 07:51:40;;;;;;;2.65;1.38;;;;;;;23.96;28.98;96541.96;127731;1101;22812;-87
2021/05/21 07:54:10;;;;;;;1.93;1.30;;;;;;;21.02;32.72;96533.88;127776;1101;23746;-87
2021/05/21 07:56:40;;;;;;;1.60;0.90;;;;;;;18.87;34.93;96544.09;127719;1097;30068;-86
2021/05/21 07:59:11;;;;;;;2.08;0.80;;;;;;;19.73;34.53;96541.45;127837;1096;22754;-89
2021/05/21 08:01:41;;;;;;;1.53;0.90;;;;;;;19.54;34.54;96548.17;127780;1097;24751;-90
2021/05/21 08:04:11;;;;;;;1.10;1.00;;;;;;;20.09;34.92;96548.65;127781;1101;28520;-89
2021/05/21 08:06:42;;;;;;;0.73;0.70;;;;;;;20.30;33.93;96545.80;127771;1101;28857;-86
2021/05/21 08:09:12;;;;;;;1.33;0.98;;;;;;;19.45;33.96;96538.64;127814;1100;28508;-90
2021/05/21 08:11:42;;;;;;;1.55;1.10;;;;;;;19.90;35.96;96546.57;127765;1100;28730;-86
2021/05/21 08:14:12;;;;;;;1.10;0.88;;;;;;;18.97;37.10;96540.95;127757;1101;22861;-89
2021/05/21 08:16:42;;;;;;;0.70;0.70;;;;;;;19.59;37.37;96551.78;127741;1101;30266;-90
2021/05/21 08:19:12;;;;;;;1.55;0.88;;;;;;;19.37;36.22;96545.69;127771;1101;22784;-87
2021/05/21 08:21:42;;;;;;;1.40;0.70;;;;;;;19.77;35.91;96539.64;127791;1101;25332;-89
2021/05/21 08:24:13;;;;;;;0.98;0.83;;;;;;;19.83;35.85;96539.06;127829;1096;26216;-89
2021/05/21 08:26:42;;;;;;;1.83;1.13;;;;;;;18.67;35.97;96528.80;127833;1101;23018;-89
2021/05/21 08:29:12;;;;;;;2.15;1.45;;;;;;;20.54;34.75;96524.16;127814;1101;24037;-92
2021/05/21 08:31:42;;;;;;;2.93;1.05;;;;;;;20.08;34.23;96525.55;127739;1101;24074;-88
2021/05/21 08:34:12;;;;;;;2.83;1.93;;;;;;;21.43;35.64;96512.94;127712;1100;27335;-89
2021/05/21 08:36:42;;;;;;;2.75;1.15;;;;;;;22.43;31.34;96518.55;127741;1095;26219;-89
2021/05/21 08:39:14;;;;;;;2.18;1.00;;;;;;;21.96;33.44;96515.22;127827;1101;23861;-89
2021/05/21 08:41:49;;;;;;;1.75;1.10;;;;;;;21.55;32.14;96506.66;127789;1101;24824;-88
2021/05/21 08:44:21;;;;;;;1.40;1.05;;;;;;;20.48;33.84;96517.47;127819;1101;22777;-88
2021/05/21 08:46:52;;;;;;;1.30;0.88;;;;;;;20.14;33.63;96506.14;127878;1101;27038;-89
2021/05/21 08:49:24;;;;;;;1.17;0.70;;;;;;;19.98;34.61;96496.42;127881;1101;24165;-88
2021/05/21 08:51:57;;;;;;;1.13;0.80;;;;;;;19.47;34.85;96496.84;127843;1101;50034;-88
2021/05/21 08:54:34;;;;;;;2.45;1.08;;;;;;;18.87;36.67;96495.73;127845;1096;23488;-87
2021/05/21 08:57:09;;;;;;;1.70;1.00;;;;;;;18.57;37.10;96499.65;127821;1096;22787;-87
2021/05/21 08:59:40;;;;;;;1.53;1.10;;;;;;;19.16;36.65;96510.09;127799;1101;24913;-87
2021/05/21 09:02:23;;;;;;;1.33;0.78;;;;;;;18.62;37.55;96496.77;127839;1101;23530;-88
2021/05/21 09:05:03;;;;;;;0.98;0.88;;;;;;;18.69;36.96;96491.66;127802;1101;22795;-88
2021/05/21 09:07:35;;;;;;;1.78;0.70;;;;;;;20.28;38.17;96480.74;127775;1100;22866;-87
2021/05/21 09:10:10;;;;;;;0.88;0.70;;;;;;;21.96;34.81;96478.24;127734;1100;22927;-90
2021/05/21 09:12:42;;;;;;;3.13;1.45;;;;;;;22.85;34.41;96474.55;127723;1101;26102;-87
2021/05/21 09:15:14;;;;;;;1.05;0.83;;;;;;;22.81;31.06;96465.57;127833;1101;22923;-88
2021/05/21 09:17:59;;;;;;;1.43;0.70;;;;;;;22.28;32.54;96461.91;127836;1101;24400;-90
2021/05/21 09:20:32;;;;;;;0.70;0.70;;;;;;;20.79;34.32;96465.54;127830;1096;27278;-89
2021/05/21 09:23:09;;;;;;;1.85;0.80;;;;;;;19.89;35.86;96458.91;127812;1100;29628;-89
2021/05/21 09:25:46;;;;;;;1.38;0.80;;;;;;;18.82;37.09;96452.95;127760;1101;27253;-86
2021/05/21 09:28:41;;;;;;;1.73;1.25;;;;;;;18.21;39.73;96460.87;127768;1100;24350;-89
2021/05/21 09:31:14;;;;;;;1.33;0.90;;;;;;;18.48;40.00;96456.02;127698;1097;26605;-88
2021/05/21 09:33:46;;;;;;;1.63;0.75;;;;;;;17.92;38.17;96459.08;127810;1101;27661;-87
2021/05/21 09:36:28;;;;;;;1.55;0.93;;;;;;;17.58;40.37;96456.63;127827;1100;29250;-90
2021/05/21 09:38:59;;;;;;;2.25;0.95;;;;;;;17.50;39.55;96442.97;127838;1101;26325;-88
2021/05/21 09:41:30;;;;;;;0.70;0.60;;;;;;;17.13;39.64;96449.97;127777;1101;52013;-87
2021/05/21 09:44:02;;;;;;;2.45;1.20;;;;;;;17.15;40.71;96458.47;127800;1096;26091;-86
2021/05/21 09:46:39;;;;;;;1.63;0.90;;;;;;;17.89;40.10;96443.66;127818;1101;23245;-90
2021/05/21 09:49:28;;;;;;;1.60;0.83;;;;;;;18.13;40.10;96450.98;127780;1101;29135;-89
2021/05/21 09:52:00;;;;;;;1.10;0.90;;;;;;;18.54;38.57;96446.63;127838;1101;32436;-88
2021/05/21 09:54:49;;;;;;;1.75;0.85;;;;;;;18.83;38.05;96443.00;127826;1101;25613;-88
2021/05/21 09:57:30;;;;;;;2.70;1.33;;;;;;;19.05;38.96;96445.25;127804;1096;26956;-89
2021/05/21 10:00:01;;;;;;;1.43;0.90;;;;;;;19.23;38.28;96440.41;127777;1101;34559;-87
2021/05/21 10:02:33;;;;;;;0.90;0.70;;;;;;;19.36;38.12;96430.44;127747;1100;25834;-88
2021/05/21 10:05:05;;;;;;;1.10;0.60;;;;;;;19.17;36.00;96433.72;127843;1101;25411;-90
2021/05/21 10:07:36;;;;;;;1.33;0.77;;;;;;;19.24;35.26;96415.10;127843;1100;27638;-92
2021/05/21 10:10:07;;;;;;;1.23;0.78;;;;;;;18.96;36.43;96420.39;127797;1101;27631;-91
2021/05/21 10:12:38;;;;;;;0.80;0.60;;;;;;;18.88;36.07;96405.97;127741;1100;27073;-90
2021/05/21 10:15:11;;;;;;;2.33;0.75;;;;;;;18.90;36.60;96427.91;127838;1101;26983;-89
2021/05/21 10:17:42;;;;;;;1.38;0.50;;;;;;;18.94;36.19;96415.36;127803;1100;23521;-86
2021/05/21 10:20:17;;;;;;;0.63;0.40;;;;;;;18.45;33.76;96400.33;127772;1096;27032;-85
2021/05/21 10:22:49;;;;;;;1.80;0.50;;;;;;;18.35;35.11;96399.63;127818;1100;25434;-88
2021/05/21 10:25:25;;;;;;;0.88;0.40;;;;;;;18.46;35.69;96410.72;127858;1100;24679;-91
2021/05/21 10:27:59;;;;;;;0.60;0.50;;;;;;;18.65;33.42;96402.15;127882;1100;26107;-87
2021/05/21 10:30:30;;;;;;;0.80;0.43;;;;;;;18.47;36.17;96411.51;127847;1100;23935;-88
2021/05/21 10:33:15;;;;;;;0.80;0.45;;;;;;;18.80;35.51;96412.23;127768;1100;25231;-88
2021/05/21 10:35:45;;;;;;;0.55;0.40;;;;;;;18.85;34.57;96393.19;127780;1100;24730;-89
2021/05/21 10:38:22;;;;;;;;;;;;;;;18.75;35.13;96415.14;127762;1100;26724;-88
2021/05/21 10:41:14;;;;;;;0.60;0.45;;;;;;;18.85;33.58;96392.41;127888;1100;24771;-87
2021/05/21 10:43:52;;;;;;;1.90;0.48;;;;;;;18.67;35.37;96386.48;127710;1100;35720;-87
2021/05/21 10:46:23;;;;;;;0.90;0.50;;;;;;;18.64;35.75;96385.26;127862;1100;24263;-88
2021/05/21 10:48:56;;;;;;;0.40;0.40;;;;;;;18.80;35.17;96385.37;127871;1100;24729;-87
2021/05/21 10:51:28;;;;;;;0.93;0.50;;;;;;;18.89;36.11;96377.20;127823;1100;24480;-87
2021/05/21 10:54:30;;;;;;;0.40;0.40;;;;;;;19.24;36.98;96374.79;127803;1096;37412;-87
2021/05/21 10:57:13;;;;;;;0.30;0.30;;;;;;;19.18;35.17;96368.88;127752;1100;25821;-87
2021/05/21 10:59:57;;;;;;;0.68;0.50;;;;;;;19.33;36.11;96359.32;127744;1096;29346;-87
2021/05/21 11:02:28;;;;;;;0.75;0.70;;;;;;;19.68;34.43;96361.46;127796;1100;24046;-87
2021/05/21 11:05:22;;;;;;;0.63;0.40;;;;;;;19.68;34.84;96356.86;127807;1096;24130;-88
2021/05/21 11:07:58;;;;;;;0.88;0.50;;;;;;;19.57;34.92;96358.50;127847;1100;28811;-86
2021/05/21 11:10:41;;;;;;;1.58;0.43;;;;;;;19.55;34.23;96348.06;127763;1094;26658;-87
2021/05/21 11:13:14;;;;;;;0.63;0.50;;;;;;;18.85;33.78;96344.84;127768;1100;25854;-88
2021/05/21 11:15:47;;;;;;;0.70;0.60;;;;;;;18.42;34.54;96349.97;127787;1095;29487;-89
2021/05/21 11:18:32;;;;;;;2.30;0.60;;;;;;;18.18;36.14;96343.47;127821;1097;26223;-88
2021/05/21 11:21:08;;;;;;;0.70;0.53;;;;;;;18.39;36.09;96333.42;127816;1100;28614;-87
2021/05/21 11:23:41;;;;;;;0.38;0.28;;;;;;;18.35;35.74;96324.48;127778;1100;26377;-89
2021/05/21 11:26:27;;;;;;;0.65;0.60;;;;;;;18.15;36.47;96327.23;127757;1100;25563;-86
2021/05/21 11:28:59;;;;;;;0.73;0.60;;;;;;;18.65;36.31;96324.28;127744;1096;25245;-88
2021/05/21 11:31:31;;;;;;;1.23;0.60;;;;;;;18.74;36.15;96318.80;127748;1100;84008;-87
2021/05/21 11:34:09;;;;;;;1.13;0.50;;;;;;;18.49;35.08;96320.69;127822;1100;23977;-87
2021/05/21 11:36:40;;;;;;;1.33;0.60;;;;;;;18.47;36.00;96317.55;127779;1101;25005;-88
2021/05/21 11:39:10;;;;;;;1.15;0.40;;;;;;;18.78;37.02;96312.41;127864;1100;23863;-89
2021/05/21 11:41:44;;;;;;;0.65;0.33;;;;;;;19.16;36.72;96301.25;127842;1101;28867;-89
2021/05/21 11:44:15;;;;;;;1.00;0.50;;;;;;;19.43;34.35;96294.33;127850;1101;22842;-88
2021/05/21 11:46:46;;;;;;;1.50;0.55;;;;;;;19.46;34.46;96288.27;127847;1101;22782;-87
2021/05/21 11:49:19;;;;;;;0.93;0.43;;;;;;;19.60;34.54;96281.73;127839;1100;26945;-90